createdAt,value
2023-05-10T00:01:22.352Z,17.98
2023-05-10T00:03:50.005Z,12.20
2023-05-10T00:06:17.722Z,11.85
2023-05-10T00:08:46.559Z,13.57
2023-05-10T00:11:14.054Z,8.98
2023-05-10T00:13:41.851Z,11.77
2023-05-10T00:16:09.471Z,12.05
2023-05-10T00:18:36.967Z,10.73
2023-05-10T00:21:05.495Z,10.40
2023-05-10T00:23:33.386Z,9.38
2023-05-10T00:26:00.915Z,8.40
2023-05-10T00:28:30.129Z,11.32
2023-05-10T00:30:57.889Z,11.73
2023-05-10T00:33:25.539Z,10.60
2023-05-10T00:35:53.746Z,15.77
2023-05-10T00:38:21.629Z,12.80
2023-05-10T00:40:49.244Z,11.68
2023-05-10T00:43:24.727Z,10.48
2023-05-10T00:45:52.740Z,7.95
2023-05-10T00:48:20.830Z,16.08
2023-05-10T00:50:48.510Z,14.50
2023-05-10T00:53:16.969Z,8.52
2023-05-10T00:55:46.250Z,11.93
2023-05-10T00:58:15.149Z,12.55
2023-05-10T01:00:44.981Z,10.70
2023-05-10T01:03:12.782Z,13.43
2023-05-10T01:05:40.352Z,17.08
2023-05-10T01:08:09.878Z,7.13
2023-05-10T01:10:37.507Z,9.75
2023-05-10T01:13:05.523Z,11.50
2023-05-10T01:15:33.396Z,13.02
2023-05-10T01:18:01.674Z,10.77
2023-05-10T01:20:47.293Z,11.18
2023-05-10T01:23:39.228Z,9.50
2023-05-10T01:26:31.209Z,6.80
2023-05-10T01:29:50.269Z,8.80
2023-05-10T01:32:28.597Z,8.95
2023-05-10T01:35:18.989Z,6.95
2023-05-10T01:38:01.178Z,8.77
2023-05-10T01:40:41.231Z,12.80
2023-05-10T01:43:21.031Z,6.15
2023-05-10T01:46:13.604Z,7.82
2023-05-10T01:48:49.224Z,7.10
2023-05-10T01:51:23.623Z,12.25
2023-05-10T01:53:56.358Z,7.10
2023-05-10T01:56:27.814Z,11.10
2023-05-10T01:58:57.851Z,6.43
2023-05-10T02:01:27.406Z,6.70
2023-05-10T02:03:56.940Z,6.40
2023-05-10T02:06:26.645Z,10.90
2023-05-10T02:08:56.389Z,7.47
2023-05-10T02:11:28.337Z,11.32
2023-05-10T02:13:57.549Z,10.73
2023-05-10T02:16:33.115Z,6.13
2023-05-10T02:19:03.000Z,10.43
2023-05-10T02:21:32.514Z,6.03
2023-05-10T02:24:02.256Z,8.18
2023-05-10T02:26:32.591Z,11.55
2023-05-10T02:29:04.443Z,9.57
2023-05-10T02:31:36.565Z,7.55
2023-05-10T02:34:07.320Z,12.65
2023-05-10T02:36:35.941Z,5.53
2023-05-10T02:39:11.202Z,11.95
2023-05-10T02:41:40.175Z,12.68
2023-05-10T02:44:11.037Z,13.52
2023-05-10T02:46:38.942Z,18.15
2023-05-10T02:49:06.923Z,12.63
2023-05-10T02:51:38.754Z,16.88
2023-05-10T02:54:13.897Z,7.65
2023-05-10T02:56:52.282Z,17.33
2023-05-10T02:59:19.907Z,17.10
2023-05-10T03:01:47.502Z,9.98
2023-05-10T03:04:15.050Z,12.25
2023-05-10T03:06:43.050Z,14.85
2023-05-10T03:09:12.348Z,13.20
2023-05-10T03:12:20.959Z,9.85
2023-05-10T03:15:20.163Z,16.65
2023-05-10T03:18:06.733Z,19.45
2023-05-10T03:20:43.531Z,13.98
2023-05-10T03:23:21.420Z,14.18
2023-05-10T03:25:51.663Z,19.58
2023-05-10T03:28:21.785Z,13.77
2023-05-10T03:30:50.770Z,14.65
2023-05-10T03:33:18.430Z,19.00
2023-05-10T03:35:48.021Z,17.55
2023-05-10T03:38:17.080Z,15.93
2023-05-10T03:40:44.552Z,19.17
2023-05-10T03:43:12.098Z,21.88
2023-05-10T03:45:39.598Z,14.85
2023-05-10T03:48:07.520Z,29.42
2023-05-10T03:50:35.075Z,13.30
2023-05-10T03:53:03.423Z,17.50
2023-05-10T03:55:31.066Z,16.15
2023-05-10T03:57:58.626Z,16.08
2023-05-10T04:00:26.425Z,17.38
2023-05-10T04:02:56.198Z,21.45
2023-05-10T04:05:24.598Z,17.02
2023-05-10T04:07:54.028Z,30.98
2023-05-10T04:10:22.627Z,16.15
2023-05-10T04:12:50.340Z,19.35
2023-05-10T04:15:18.030Z,18.58
2023-05-10T04:17:45.555Z,12.35
2023-05-10T04:20:14.544Z,11.55
2023-05-10T04:22:42.135Z,12.07
2023-05-10T04:25:10.239Z,10.30
2023-05-10T04:27:38.112Z,11.63
2023-05-10T04:30:06.959Z,16.10
2023-05-10T04:32:34.832Z,15.23
2023-05-10T04:35:04.705Z,18.38
2023-05-10T04:37:32.410Z,19.30
2023-05-10T04:40:01.170Z,12.93
2023-05-10T04:42:30.154Z,17.85
2023-05-10T04:44:57.663Z,8.60
2023-05-10T04:47:25.195Z,15.80
2023-05-10T04:49:52.724Z,13.80
2023-05-10T04:52:20.189Z,20.10
2023-05-10T04:54:47.613Z,18.00
2023-05-10T04:57:15.355Z,13.80
2023-05-10T04:59:43.655Z,10.80
2023-05-10T05:02:11.192Z,8.52
2023-05-10T05:04:38.611Z,15.25
2023-05-10T05:07:06.211Z,12.88
2023-05-10T05:09:33.652Z,17.63
2023-05-10T05:12:01.266Z,8.25
2023-05-10T05:14:28.711Z,9.77
2023-05-10T05:16:56.957Z,8.70
2023-05-10T05:19:24.366Z,7.00
2023-05-10T05:21:52.043Z,16.00
2023-05-10T05:24:19.432Z,10.68
2023-05-10T05:26:47.324Z,5.80
2023-05-10T05:29:14.796Z,5.40
2023-05-10T05:31:42.308Z,11.38
2023-05-10T05:34:09.898Z,5.97
2023-05-10T05:36:41.325Z,7.80
2023-05-10T05:39:09.023Z,13.48
2023-05-10T05:41:36.535Z,8.75
2023-05-10T05:44:04.061Z,6.68
2023-05-10T05:46:31.992Z,10.25
2023-05-10T05:48:59.448Z,10.27
2023-05-10T05:51:26.974Z,3.15
2023-05-10T05:53:54.744Z,3.95
2023-05-10T05:56:25.644Z,7.15
2023-05-10T05:58:53.487Z,4.00
2023-05-10T06:01:21.447Z,5.50
2023-05-10T06:03:49.879Z,4.70
2023-05-10T06:06:18.552Z,15.50
2023-05-10T06:08:46.136Z,10.93
2023-05-10T06:11:13.485Z,5.05
2023-05-10T06:13:40.974Z,3.88
2023-05-10T06:16:08.510Z,7.82
2023-05-10T06:18:36.059Z,7.38
2023-05-10T06:21:03.500Z,4.28
2023-05-10T06:23:30.990Z,12.43
2023-05-10T06:25:58.359Z,10.10
2023-05-10T06:28:25.867Z,10.77
2023-05-10T06:30:53.259Z,9.98
2023-05-10T06:33:20.847Z,9.27
2023-05-10T06:35:48.300Z,4.57
2023-05-10T06:38:16.343Z,9.45
2023-05-10T06:43:12.065Z,10.27
2023-05-10T06:45:39.522Z,8.02
2023-05-10T06:48:07.100Z,7.63
2023-05-10T06:50:35.197Z,8.00
2023-05-10T06:55:33.246Z,4.15
2023-05-10T06:58:00.627Z,3.58
2023-05-10T07:00:28.236Z,7.10
2023-05-10T07:02:56.255Z,4.68
2023-05-10T07:05:23.911Z,3.90
2023-05-10T07:07:51.586Z,3.75
2023-05-10T07:10:19.106Z,6.63
2023-05-10T07:15:14.431Z,6.10
2023-05-10T07:17:43.352Z,9.02
2023-05-10T07:20:13.679Z,3.35
2023-05-10T07:22:41.104Z,5.38
2023-05-10T07:25:09.091Z,7.63
2023-05-10T07:27:36.537Z,6.07
2023-05-10T07:30:04.318Z,6.97
2023-05-10T07:32:35.163Z,6.10
2023-05-10T07:35:02.672Z,18.65
2023-05-10T07:37:31.885Z,8.00
2023-05-10T07:39:59.333Z,11.23
2023-05-10T07:42:26.800Z,10.52
2023-05-10T07:44:54.240Z,3.33
2023-05-10T07:47:21.847Z,7.82
2023-05-10T07:49:49.326Z,6.78
2023-05-10T07:52:16.792Z,5.63
2023-05-10T07:54:44.420Z,3.58
2023-05-10T07:57:12.114Z,5.72
2023-05-10T07:59:39.581Z,4.80
2023-05-10T08:02:07.639Z,5.60
2023-05-10T08:07:02.328Z,3.90
2023-05-10T08:09:29.767Z,4.20
2023-05-10T08:11:57.492Z,11.93
2023-05-10T08:14:24.976Z,5.13
2023-05-10T08:16:52.615Z,3.45
2023-05-10T08:19:22.354Z,5.05
2023-05-10T08:21:50.228Z,5.25
2023-05-10T08:24:17.820Z,4.82
2023-05-10T08:26:45.295Z,2.25
2023-05-10T08:29:12.900Z,11.60
2023-05-10T08:31:40.416Z,5.38
2023-05-10T08:34:08.155Z,5.75
2023-05-10T08:36:35.532Z,7.75
2023-05-10T08:39:03.358Z,4.93
2023-05-10T08:41:34.439Z,5.32
2023-05-10T08:44:05.539Z,7.03
2023-05-10T08:46:39.885Z,4.18
2023-05-10T08:49:10.244Z,5.97
2023-05-10T08:51:42.608Z,12.55
2023-05-10T08:54:12.013Z,10.18
2023-05-10T08:56:39.707Z,3.08
2023-05-10T08:59:07.365Z,3.00
2023-05-10T09:01:37.491Z,6.55
2023-05-10T09:04:05.536Z,2.42
2023-05-10T09:09:02.614Z,6.38
2023-05-10T09:11:31.111Z,7.00
2023-05-10T09:13:58.595Z,9.32
2023-05-10T09:16:26.259Z,9.00
2023-05-10T09:18:53.740Z,7.32
2023-05-10T09:21:21.811Z,2.85
2023-05-10T09:26:23.432Z,1.35
2023-05-10T09:29:00.019Z,5.72
2023-05-10T09:31:52.711Z,5.35
2023-05-10T09:34:29.431Z,3.15
2023-05-10T09:37:02.551Z,3.90
2023-05-10T09:39:35.391Z,9.25
2023-05-10T09:42:10.765Z,3.45
2023-05-10T09:44:39.399Z,4.53
2023-05-10T09:47:07.331Z,3.35
2023-05-10T09:49:35.970Z,6.30
2023-05-10T09:52:09.001Z,2.05
2023-05-10T09:54:37.255Z,3.50
2023-05-10T09:57:04.737Z,2.80
2023-05-10T09:59:36.416Z,4.25
2023-05-10T10:02:04.395Z,2.28
2023-05-10T10:07:05.456Z,4.88
2023-05-10T10:09:35.638Z,4.20
2023-05-10T10:12:05.748Z,6.63
2023-05-10T10:14:33.914Z,7.30
2023-05-10T10:17:07.672Z,4.65
2023-05-10T10:19:37.197Z,6.90
2023-05-10T10:22:05.524Z,6.55
2023-05-10T10:27:42.050Z,6.03
2023-05-10T10:30:43.782Z,3.53
2023-05-10T10:33:32.329Z,8.35
2023-05-10T10:36:01.794Z,4.30
2023-05-10T10:38:47.536Z,5.07
2023-05-10T10:41:33.668Z,5.03
2023-05-10T10:44:34.901Z,6.15
2023-05-10T10:47:30.122Z,6.05
2023-05-10T10:50:06.630Z,6.63
2023-05-10T10:52:37.305Z,5.55
2023-05-10T10:55:07.331Z,4.07
2023-05-10T10:58:02.069Z,4.85
2023-05-10T11:00:34.595Z,6.10
2023-05-10T11:03:18.468Z,4.45
2023-05-10T11:05:59.805Z,7.10
2023-05-10T11:08:35.145Z,5.82
2023-05-10T11:11:10.651Z,3.92
2023-05-10T11:13:44.973Z,2.80
2023-05-10T11:16:28.190Z,13.85
2023-05-10T11:19:08.801Z,8.02
2023-05-10T11:22:14.219Z,6.70
2023-05-10T11:24:57.200Z,3.70
2023-05-10T11:27:24.719Z,14.00
2023-05-10T11:29:55.233Z,5.97
2023-05-10T11:32:23.925Z,13.43
2023-05-10T11:34:51.313Z,8.82
2023-05-10T11:37:19.698Z,4.78
2023-05-10T11:39:48.742Z,2.97
2023-05-10T11:42:16.248Z,5.28
2023-05-10T11:44:48.164Z,12.23
2023-05-10T11:47:15.676Z,6.05
2023-05-10T11:49:47.724Z,6.45
2023-05-10T11:52:15.466Z,5.68
2023-05-10T11:54:56.043Z,5.90
2023-05-10T11:57:29.686Z,11.05
2023-05-10T12:00:00.726Z,14.95
2023-05-10T12:02:30.879Z,6.80
2023-05-10T12:04:58.744Z,3.53
2023-05-10T12:10:16.319Z,4.80
2023-05-10T12:12:46.762Z,5.00
2023-05-10T12:15:22.615Z,3.28
2023-05-10T12:17:51.722Z,7.75
2023-05-10T12:20:22.687Z,4.28
2023-05-10T12:23:00.622Z,6.40
2023-05-10T12:25:33.862Z,9.52
2023-05-10T12:28:06.319Z,4.47
2023-05-10T12:30:35.906Z,6.85
2023-05-10T12:33:11.063Z,4.43
2023-05-10T12:35:50.534Z,5.25
2023-05-10T12:38:35.040Z,5.63
2023-05-10T12:41:05.406Z,8.68
2023-05-10T12:43:33.860Z,7.95
2023-05-10T12:46:13.119Z,7.45
2023-05-10T12:48:42.570Z,8.27
2023-05-10T12:51:10.748Z,9.93
2023-05-10T12:53:39.427Z,6.55
2023-05-10T12:56:08.650Z,6.68
2023-05-10T13:01:04.333Z,7.47
2023-05-10T13:03:32.014Z,4.10
2023-05-10T13:05:59.540Z,6.57
2023-05-10T13:08:27.150Z,4.53
2023-05-10T13:10:54.658Z,5.05
2023-05-10T13:13:22.229Z,7.53
2023-05-10T13:15:49.818Z,6.47
2023-05-10T13:18:17.424Z,4.32
2023-05-10T13:20:45.637Z,3.92
2023-05-10T13:25:40.482Z,2.17
2023-05-10T13:28:07.923Z,10.90
2023-05-10T13:30:35.484Z,5.93
2023-05-10T13:33:02.983Z,9.02
2023-05-10T13:35:30.550Z,8.07
2023-05-10T13:37:58.846Z,18.98
2023-05-10T13:40:26.253Z,3.75
2023-05-10T13:42:54.188Z,4.75
2023-05-10T13:45:22.037Z,3.92
2023-05-10T13:47:49.507Z,2.22
2023-05-10T13:50:17.152Z,6.03
2023-05-10T13:52:44.703Z,6.55
2023-05-10T13:55:14.324Z,7.57
2023-05-10T13:57:42.043Z,6.32
2023-05-10T14:00:10.754Z,17.20
2023-05-10T14:02:39.059Z,11.32
2023-05-10T14:05:07.006Z,11.35
2023-05-10T14:07:34.551Z,8.15
2023-05-10T14:10:02.222Z,8.38
2023-05-10T14:12:31.746Z,4.15
2023-05-10T14:14:59.343Z,11.98
2023-05-10T14:17:26.717Z,8.43
2023-05-10T14:19:54.368Z,8.85
2023-05-10T14:22:21.878Z,3.30
2023-05-10T14:24:49.976Z,3.70
2023-05-10T14:27:17.444Z,6.15
2023-05-10T14:29:44.906Z,4.70
2023-05-10T14:32:12.538Z,8.57
2023-05-10T14:34:40.204Z,4.13
2023-05-10T14:37:07.663Z,5.05
2023-05-10T14:39:35.279Z,6.80
2023-05-10T14:42:06.136Z,9.10
2023-05-10T14:44:33.619Z,4.18
2023-05-10T14:47:01.160Z,8.45
2023-05-10T14:49:28.844Z,5.28
2023-05-10T14:51:56.410Z,5.63
2023-05-10T14:54:23.888Z,6.47
2023-05-10T14:56:51.640Z,5.68
2023-05-10T14:59:19.121Z,2.45
2023-05-10T15:01:46.972Z,2.65
2023-05-10T15:06:44.728Z,3.47
2023-05-10T15:09:12.249Z,5.43
2023-05-10T15:11:39.798Z,4.75
2023-05-10T15:14:07.325Z,6.10
2023-05-10T15:16:36.244Z,4.18
2023-05-10T15:19:04.040Z,5.60
2023-05-10T15:21:36.299Z,5.30
2023-05-10T15:24:03.916Z,6.45
2023-05-10T15:26:31.445Z,5.70
2023-05-10T15:28:58.986Z,4.75
2023-05-10T15:31:26.632Z,7.35
2023-05-10T15:34:00.310Z,4.53
2023-05-10T15:36:28.184Z,9.30
2023-05-10T15:38:56.048Z,6.68
2023-05-10T15:41:24.010Z,8.82
2023-05-10T15:43:51.688Z,9.27
2023-05-10T15:46:19.345Z,5.13
2023-05-10T15:48:46.899Z,8.65
2023-05-10T15:51:14.423Z,10.65
2023-05-10T15:53:52.782Z,7.03
2023-05-10T15:56:28.818Z,3.75
2023-05-10T15:58:56.552Z,8.13
2023-05-10T16:01:24.165Z,2.40
2023-05-10T16:03:51.780Z,2.80
2023-05-10T16:06:19.263Z,6.45
2023-05-10T16:08:46.821Z,8.18
2023-05-10T16:11:14.502Z,4.10
2023-05-10T16:13:42.228Z,7.10
2023-05-10T16:16:09.893Z,10.55
2023-05-10T16:18:37.915Z,7.00
2023-05-10T16:21:05.730Z,4.40
2023-05-10T16:23:33.251Z,4.68
2023-05-10T16:26:00.767Z,10.10
2023-05-10T16:28:28.302Z,9.57
2023-05-10T16:30:55.855Z,7.32
2023-05-10T16:33:23.423Z,3.00
2023-05-10T16:35:51.074Z,3.55
2023-05-10T16:38:18.529Z,2.83
2023-05-10T16:40:46.384Z,8.50
2023-05-10T16:43:13.894Z,2.78
2023-05-10T16:45:42.456Z,8.38
2023-05-10T16:48:10.059Z,5.35
2023-05-10T16:50:37.672Z,6.80
2023-05-10T16:53:05.144Z,4.30
2023-05-10T16:55:32.659Z,7.13
2023-05-10T16:58:01.129Z,5.32
2023-05-10T17:00:28.701Z,2.30
2023-05-10T17:02:56.529Z,6.50
2023-05-10T17:05:24.084Z,9.23
2023-05-10T17:07:51.557Z,9.90
2023-05-10T17:10:19.928Z,9.10
2023-05-10T17:12:47.344Z,13.20
2023-05-10T17:15:16.636Z,23.75
2023-05-10T17:17:44.573Z,14.55
2023-05-10T17:20:12.556Z,19.25
2023-05-10T17:22:40.039Z,17.83
2023-05-10T17:25:10.924Z,17.90
2023-05-10T17:27:38.426Z,12.15
2023-05-10T17:30:08.311Z,18.23
2023-05-10T17:32:35.948Z,15.40
2023-05-10T17:35:05.446Z,15.20
2023-05-10T17:37:33.321Z,13.05
2023-05-10T17:40:01.558Z,17.63
2023-05-10T17:42:29.908Z,11.10
2023-05-10T17:44:57.370Z,18.02
2023-05-10T17:47:25.006Z,12.52
2023-05-10T17:49:52.573Z,19.25
2023-05-10T17:52:20.144Z,12.25
2023-05-10T17:54:47.715Z,12.80
2023-05-10T17:57:15.176Z,18.00
2023-05-10T17:59:42.794Z,14.93
2023-05-10T18:02:10.340Z,20.83
2023-05-10T18:04:41.180Z,20.40
2023-05-10T18:07:10.111Z,23.92
2023-05-10T18:09:37.658Z,20.15
2023-05-10T18:12:06.210Z,14.30
2023-05-10T18:14:40.642Z,18.77
2023-05-10T18:17:11.326Z,15.88
2023-05-10T18:19:38.976Z,25.17
2023-05-10T18:22:08.933Z,23.70
2023-05-10T18:24:39.911Z,19.00
2023-05-10T18:27:09.785Z,18.27
2023-05-10T18:29:37.688Z,24.02
2023-05-10T18:32:05.756Z,19.88
2023-05-10T18:34:33.269Z,23.58
2023-05-10T18:37:00.879Z,20.27
2023-05-10T18:39:28.650Z,19.85
2023-05-10T18:41:58.886Z,19.33
2023-05-10T18:44:27.195Z,17.33
2023-05-10T18:46:54.842Z,25.52
2023-05-10T18:49:22.767Z,21.33
2023-05-10T18:51:50.327Z,25.23
2023-05-10T18:54:18.070Z,33.03
2023-05-10T18:56:45.656Z,25.35
2023-05-10T18:59:13.515Z,16.52
2023-05-10T19:01:41.961Z,18.67
2023-05-10T19:04:09.868Z,15.80
2023-05-10T19:06:37.465Z,21.83
2023-05-10T19:09:05.181Z,21.55
2023-05-10T19:11:34.602Z,29.10
2023-05-10T19:14:02.787Z,15.20
2023-05-10T19:16:30.993Z,20.42
2023-05-10T19:19:01.355Z,17.15
2023-05-10T19:21:31.511Z,35.03
2023-05-10T19:24:01.343Z,21.55
2023-05-10T19:26:29.201Z,13.13
2023-05-10T19:28:57.787Z,20.80
2023-05-10T19:31:25.510Z,29.45
2023-05-10T19:33:53.923Z,17.13
2023-05-10T19:36:21.672Z,18.38
2023-05-10T19:38:49.312Z,12.20
2023-05-10T19:41:17.300Z,19.20
2023-05-10T19:43:44.871Z,43.35
2023-05-10T19:46:12.428Z,37.92
2023-05-10T19:48:40.050Z,37.45
2023-05-10T19:51:10.148Z,29.38
2023-05-10T19:53:38.242Z,44.42
2023-05-10T19:56:07.340Z,35.25
2023-05-10T19:58:34.871Z,23.08
2023-05-10T20:01:03.217Z,24.23
2023-05-10T20:03:30.816Z,23.70
2023-05-10T20:05:58.734Z,31.75
2023-05-10T20:08:26.286Z,38.45
2023-05-10T20:10:53.850Z,24.88
2023-05-10T20:13:21.489Z,45.30
2023-05-10T20:15:49.209Z,34.35
2023-05-10T20:18:16.798Z,26.73
2023-05-10T20:20:44.354Z,32.17
2023-05-10T20:23:11.852Z,25.33
2023-05-10T20:25:39.423Z,18.25
2023-05-10T20:28:08.691Z,17.75
2023-05-10T20:30:36.327Z,22.00
2023-05-10T20:33:04.534Z,23.58
2023-05-10T20:35:33.144Z,22.15
2023-05-10T20:38:02.208Z,20.80
2023-05-10T20:40:29.805Z,26.85
2023-05-10T20:42:57.305Z,24.15
2023-05-10T20:45:24.933Z,20.40
2023-05-10T20:47:54.560Z,22.58
2023-05-10T20:50:22.211Z,13.38
2023-05-10T20:52:52.436Z,20.30
2023-05-10T20:55:21.068Z,18.67
2023-05-10T20:57:49.841Z,18.00
2023-05-10T21:00:17.720Z,26.05
2023-05-10T21:05:13.977Z,17.65
2023-05-10T21:07:41.518Z,18.00
2023-05-10T21:10:11.398Z,24.35
2023-05-10T21:12:39.058Z,39.45
2023-05-10T21:15:07.376Z,45.97
2023-05-10T21:17:35.082Z,28.00
2023-05-10T21:20:02.627Z,29.25
2023-05-10T21:22:31.668Z,36.00
2023-05-10T21:24:59.155Z,40.60
2023-05-10T21:27:26.656Z,26.27
2023-05-10T21:29:54.204Z,18.77
2023-05-10T21:32:21.809Z,25.35
2023-05-10T21:34:49.418Z,17.17
2023-05-10T21:37:19.915Z,21.08
2023-05-10T21:39:47.460Z,21.00
2023-05-10T21:42:14.913Z,22.48
2023-05-10T21:44:42.474Z,21.17
2023-05-10T21:47:10.215Z,22.70
2023-05-10T21:49:37.728Z,13.68
2023-05-10T21:52:05.314Z,16.08
2023-05-10T21:54:33.085Z,21.83
2023-05-10T21:57:00.716Z,25.90
2023-05-10T21:59:28.128Z,34.42
2023-05-10T22:01:55.579Z,27.37
2023-05-10T22:04:23.058Z,30.27
2023-05-10T22:06:50.740Z,27.42
2023-05-10T22:09:19.129Z,24.30
2023-05-10T22:11:46.665Z,31.17
2023-05-10T22:14:14.072Z,28.17
2023-05-10T22:16:41.602Z,24.83
2023-05-10T22:19:09.195Z,30.70
2023-05-10T22:21:36.844Z,29.88
2023-05-10T22:24:04.375Z,25.40
2023-05-10T22:26:31.897Z,41.80
2023-05-10T22:28:59.484Z,25.83
2023-05-10T22:31:27.296Z,26.33
2023-05-10T22:33:54.726Z,21.02
2023-05-10T22:36:22.480Z,18.90
2023-05-10T22:38:50.001Z,13.25
2023-05-10T22:41:17.470Z,29.13
2023-05-10T22:43:45.830Z,18.77
2023-05-10T22:46:13.659Z,22.90
2023-05-10T22:48:42.378Z,19.15
2023-05-10T22:51:10.147Z,14.93
2023-05-10T22:53:37.696Z,24.25
2023-05-10T22:56:06.334Z,22.45
2023-05-10T22:58:36.901Z,21.70
2023-05-10T23:01:04.824Z,15.98
2023-05-10T23:03:32.368Z,23.05
2023-05-10T23:06:00.002Z,12.02
2023-05-10T23:08:27.770Z,15.50
2023-05-10T23:10:55.218Z,14.95
2023-05-10T23:13:23.263Z,16.23
2023-05-10T23:15:51.078Z,25.90
2023-05-10T23:18:18.711Z,16.63
2023-05-10T23:20:46.266Z,21.35
2023-05-10T23:23:13.865Z,17.60
2023-05-10T23:25:41.547Z,17.52
2023-05-10T23:28:09.054Z,15.52
2023-05-10T23:30:36.571Z,9.10
2023-05-10T23:33:04.253Z,27.47
2023-05-10T23:35:31.821Z,16.75
2023-05-10T23:37:59.376Z,20.33
2023-05-10T23:40:26.980Z,15.95
2023-05-10T23:42:54.508Z,20.73
2023-05-10T23:45:22.013Z,16.23
2023-05-10T23:47:49.613Z,20.33
2023-05-10T23:50:17.394Z,12.95
2023-05-10T23:52:44.996Z,19.10
2023-05-10T23:55:12.637Z,21.63
2023-05-10T23:57:40.539Z,22.63
